Saint-Jovite, Quebec

1:40 AM EST on February 11, 2016 (GMT -0500)
Lac a L'ile | | Change Station
CLOSE
Current Station
Personal Weather Station
Location: Val-des-Lacs, QUéBEC
Elevation: 1657 ft
Nearby Weather Stations

Elev 1657 ft 46.20 °N, 74.33 °W | Updated 1 second ago

Light Snow
Light Snow
2.1 °F
Feels Like 2 °F
N
0.0
Wind Variable Wind from North
Gusts 0.0 mph

Today is forecast to be nearly the same temperature as yesterday.

Today
High -- | Low -- °F
--% Chance of Precip.
Yesterday
High -- | Low -- °F
Precip. -- in
Pressure 29.67 in
Visibility 15.0 miles
Clouds Overcast 9000 ft
Windchill 2 °F
Dew Point -9 °F
Humidity 58%
Rainfall 0.00 in
Snow Depth Not available.
7:07 AM 5:17 PM
Waxing Crescent, 10% visible
METAR CYMX 110600Z 26004KT 15SM -SN OVC090 M09/M12 A2964 RMK AC8 SLP046
Pressure 29.67 in
Visibility 15.0 miles
Clouds Overcast 9000 ft
Windchill 2 °F
Dew Point -9 °F
Humidity 58%
Rainfall 0.00 in
Snow Depth Not available.
7:07 AM 5:17 PM
Waxing Crescent, 10% visible
METAR CYMX 110600Z 26004KT 15SM -SN OVC090 M09/M12 A2964 RMK AC8 SLP046

10-Day Weather Forecast

Heavy Snow conditions possible.

Almanac

Astronomy

Feb. 11, 2016 Rise Set
Actual Time
Civil Twilight
Nautical Twilight
Astronomical Twilight
Moon
Length of Visible Light
Length of Day
Tomorrow will be .
, % of the Moon is Illuminated

Today's Extremes

Country Highs Country Lows

Community

WunderPhotos

Upload Photos

1,892,028 photos uploaded!

WunderBlog® & News

Nearby

Air Quality

  Air Quality AQ Index Pollutant
Not available.

Snow Depth

Station Depth Elevation

Earthquake Activity

City Distance Mag. Time & Date
Minimum magnitude displayed is 2.5.

Coastal Water Temperatures

Place Temperature

Stations

Nearby Weather Stations

Station Location Temp. Windchill Dew Point Humidity Wind Precip. Elev Updated Type
                   

Watches & Warnings

There are currently no watches in effect.